Weather at CdV "38 N Fly Zone"

Public forecast

Using degrees Celsius for public forecast. Weather courtesy of forecast.io.

Closest aviation weather report (METAR) to CdV "38 N Fly Zone"

Closest report is Reggio Calabria Airport, 13.3 nm (24.6 km) NW. Retrieved 2020/11/27 22:50 UTC (2 hours ago):

LICR 272250Z 14009KT CAVOK 13/06 Q1019

Closest aviation forecast (TAF) to CdV "38 N Fly Zone"

Forecast is more than 6 hours old.

Closest forecast is Reggio Calabria Airport, 13.3 nm (24.6 km) NW. Retrieved 2020/11/27 18:22 UTC (6 hours ago):

TAF DRZA 271700Z 2718/2818 12008KT CAVOK TAF LICR 271700Z 2718/2818 20014KT 9999 SCT030 TEMPO 2809/2818 4000 SHRA